createdAt,value
2022-09-07T00:00:53.872Z,17.03
2022-09-07T00:03:20.838Z,16.99
2022-09-07T00:05:49.433Z,16.95
2022-09-07T00:08:18.147Z,16.89
2022-09-07T00:11:02.361Z,16.94
2022-09-07T00:13:33.494Z,16.80
2022-09-07T00:16:04.663Z,16.79
2022-09-07T00:18:31.650Z,16.72
2022-09-07T00:21:00.696Z,16.70
2022-09-07T00:23:28.819Z,16.76
2022-09-07T00:26:00.553Z,16.71
2022-09-07T00:28:27.189Z,16.67
2022-09-07T00:30:53.717Z,16.47
2022-09-07T00:33:20.272Z,16.46
2022-09-07T00:35:46.780Z,16.47
2022-09-07T00:38:13.542Z,16.39
2022-09-07T00:40:40.344Z,16.35
2022-09-07T00:43:07.768Z,16.41
2022-09-07T00:45:34.268Z,16.39
2022-09-07T00:48:15.052Z,16.17
2022-09-07T00:50:46.361Z,16.32
2022-09-07T00:53:18.933Z,16.30
2022-09-07T00:55:48.202Z,16.26
2022-09-07T00:58:15.939Z,16.24
2022-09-07T01:00:45.989Z,16.05
2022-09-07T01:03:16.253Z,16.17
2022-09-07T01:09:25.621Z,16.08
2022-09-07T01:11:54.726Z,15.98
2022-09-07T01:14:26.564Z,15.99
2022-09-07T01:17:09.690Z,15.94
2022-09-07T01:20:00.550Z,15.87
2022-09-07T01:23:11.679Z,15.84
2022-09-07T01:26:13.666Z,15.79
2022-09-07T01:28:40.966Z,15.74
2022-09-07T01:31:28.491Z,15.53
2022-09-07T01:34:05.386Z,15.48
2022-09-07T01:36:40.359Z,15.52
2022-09-07T01:39:07.087Z,15.46
2022-09-07T01:41:49.050Z,15.36
2022-09-07T01:44:25.009Z,15.28
2022-09-07T01:46:57.198Z,15.19
2022-09-07T01:49:41.080Z,15.23
2022-09-07T01:52:14.668Z,15.21
2022-09-07T01:55:10.701Z,15.25
2022-09-07T01:57:45.193Z,15.05
2022-09-07T02:00:18.486Z,15.25
2022-09-07T02:02:51.235Z,15.02
2022-09-07T02:05:23.808Z,15.22
2022-09-07T02:07:56.222Z,15.06
2022-09-07T02:10:40.480Z,15.06
2022-09-07T02:13:16.465Z,15.14
2022-09-07T02:15:58.238Z,15.13
2022-09-07T02:18:26.710Z,15.13
2022-09-07T02:20:56.042Z,15.04
2022-09-07T02:23:28.150Z,14.99
2022-09-07T02:26:01.294Z,15.11
2022-09-07T02:28:34.641Z,15.09
2022-09-07T02:31:01.745Z,15.19
2022-09-07T02:33:29.216Z,15.10
2022-09-07T02:35:55.872Z,15.05
2022-09-07T02:38:23.030Z,14.87
2022-09-07T02:40:56.775Z,14.86
2022-09-07T02:43:25.311Z,14.62
2022-09-07T02:45:57.756Z,14.59
2022-09-07T02:48:24.257Z,14.64
2022-09-07T02:51:13.850Z,14.60
2022-09-07T02:53:59.867Z,14.70
2022-09-07T02:56:46.141Z,14.46
2022-09-07T02:59:56.423Z,14.56
2022-09-07T03:02:34.076Z,14.52
2022-09-07T03:05:20.899Z,14.57
2022-09-07T03:08:05.698Z,14.52
2022-09-07T03:10:32.987Z,14.52
2022-09-07T03:12:59.482Z,14.47
2022-09-07T03:15:27.554Z,14.42
2022-09-07T03:17:54.162Z,14.50
2022-09-07T03:20:22.156Z,14.62
2022-09-07T03:22:50.334Z,14.52
2022-09-07T03:25:17.692Z,14.49
2022-09-07T03:27:44.368Z,14.57
2022-09-07T03:30:12.728Z,14.42
2022-09-07T03:32:39.534Z,14.33
2022-09-07T03:35:07.482Z,14.19
2022-09-07T03:37:36.693Z,14.08
2022-09-07T03:40:09.333Z,14.03
2022-09-07T03:42:37.676Z,13.92
2022-09-07T03:45:05.314Z,13.73
2022-09-07T03:47:34.131Z,13.79
2022-09-07T03:50:00.663Z,13.90
2022-09-07T03:52:27.228Z,13.95
2022-09-07T03:54:53.759Z,13.85
2022-09-07T03:57:20.339Z,13.84
2022-09-07T03:59:47.150Z,13.77
2022-09-07T04:02:14.304Z,13.67
2022-09-07T04:04:42.493Z,13.77
2022-09-07T04:07:09.402Z,13.83
2022-09-07T04:09:35.947Z,13.67
2022-09-07T04:12:02.930Z,13.68
2022-09-07T04:14:29.469Z,13.95
2022-09-07T04:16:56.396Z,13.88
2022-09-07T04:19:23.591Z,13.83
2022-09-07T04:21:50.145Z,13.91
2022-09-07T04:24:17.975Z,13.91
2022-09-07T04:26:45.144Z,13.91
2022-09-07T04:29:13.162Z,13.98
2022-09-07T04:31:39.999Z,14.02
2022-09-07T04:34:06.879Z,13.96
2022-09-07T04:36:33.822Z,13.95
2022-09-07T04:39:02.878Z,13.96
2022-09-07T04:41:31.701Z,14.03
2022-09-07T04:44:00.574Z,13.92
2022-09-07T04:46:35.717Z,14.02
2022-09-07T04:49:08.322Z,14.07
2022-09-07T04:51:36.425Z,14.03
2022-09-07T04:54:04.062Z,14.00
2022-09-07T04:56:31.647Z,13.99
2022-09-07T04:58:59.221Z,13.89
2022-09-07T05:01:26.237Z,13.97
2022-09-07T05:03:53.317Z,14.05
2022-09-07T05:06:21.790Z,14.05
2022-09-07T05:08:53.758Z,14.04
2022-09-07T05:11:28.424Z,13.91
2022-09-07T05:13:56.853Z,13.88
2022-09-07T05:16:24.588Z,14.02
2022-09-07T05:18:53.451Z,14.01
2022-09-07T05:21:23.035Z,14.04
2022-09-07T05:23:51.437Z,14.07
2022-09-07T05:26:19.024Z,13.91
2022-09-07T05:28:46.062Z,14.02
2022-09-07T05:31:19.654Z,13.95
2022-09-07T05:36:39.148Z,14.05
2022-09-07T05:39:06.902Z,14.11
2022-09-07T05:41:33.792Z,14.27
2022-09-07T05:46:47.324Z,14.24
2022-09-07T05:49:13.887Z,14.22
2022-09-07T05:51:41.121Z,14.20
2022-09-07T05:54:07.659Z,14.21
2022-09-07T05:56:36.001Z,14.31
2022-09-07T05:59:03.317Z,14.52
2022-09-07T06:01:29.945Z,14.38
2022-09-07T06:03:56.502Z,14.61
2022-09-07T06:06:23.342Z,14.62
2022-09-07T06:08:52.446Z,14.68
2022-09-07T06:11:21.468Z,14.84
2022-09-07T06:13:48.650Z,14.84
2022-09-07T06:16:16.171Z,14.93
2022-09-07T06:18:45.303Z,14.88
2022-09-07T06:21:12.761Z,14.88
2022-09-07T06:23:41.124Z,15.12
2022-09-07T06:26:09.120Z,15.42
2022-09-07T06:28:38.179Z,15.70
2022-09-07T06:31:15.650Z,15.79
2022-09-07T06:33:43.394Z,15.99
2022-09-07T06:36:12.727Z,16.16
2022-09-07T06:38:40.255Z,16.04
2022-09-07T06:44:02.990Z,15.85
2022-09-07T06:49:16.043Z,16.00
2022-09-07T06:51:42.570Z,15.65
2022-09-07T06:56:56.318Z,15.92
2022-09-07T06:59:22.808Z,15.83
2022-09-07T07:01:49.358Z,15.96
2022-09-07T07:04:15.926Z,16.28
2022-09-07T07:06:42.472Z,16.70
2022-09-07T07:09:12.243Z,16.80
2022-09-07T07:11:38.832Z,16.99
2022-09-07T07:14:05.398Z,17.39
2022-09-07T07:16:32.078Z,17.95
2022-09-07T07:18:58.654Z,17.82
2022-09-07T07:21:25.223Z,18.02
2022-09-07T07:23:53.068Z,17.85
2022-09-07T07:26:22.139Z,18.72
2022-09-07T07:29:06.284Z,18.90
2022-09-07T07:31:33.739Z,19.64
2022-09-07T07:34:00.398Z,19.57
2022-09-07T07:36:28.161Z,20.54
2022-09-07T07:44:14.446Z,19.46
2022-09-07T07:46:41.058Z,19.21
2022-09-07T07:49:07.573Z,19.37
2022-09-07T07:52:49.782Z,19.41
2022-09-07T07:54:20.554Z,19.47
2022-09-07T07:56:47.195Z,20.27
2022-09-07T07:59:15.739Z,19.44
2022-09-07T08:01:43.740Z,19.95
2022-09-07T08:04:10.396Z,20.82
2022-09-07T08:06:37.747Z,20.32
2022-09-07T08:09:04.196Z,21.03
2022-09-07T08:11:31.220Z,21.71
2022-09-07T08:14:00.186Z,21.90
2022-09-07T08:16:26.698Z,22.62
2022-09-07T08:18:53.692Z,22.50
2022-09-07T08:21:20.140Z,23.24
2022-09-07T08:23:46.631Z,23.32
2022-09-07T08:26:13.184Z,22.62
2022-09-07T08:28:41.773Z,23.44
2022-09-07T08:31:11.246Z,23.47
2022-09-07T08:33:38.446Z,23.46
2022-09-07T08:36:12.510Z,23.31
2022-09-07T08:38:39.475Z,23.34
2022-09-07T08:41:34.780Z,23.69
2022-09-07T08:44:13.217Z,22.27
2022-09-07T08:46:47.325Z,22.55
2022-09-07T08:49:21.502Z,22.85
2022-09-07T08:51:54.737Z,22.89
2022-09-07T08:54:21.160Z,22.46
2022-09-07T09:00:03.999Z,23.56
2022-09-07T09:02:33.706Z,23.08
2022-09-07T09:05:20.608Z,23.62
2022-09-07T09:07:49.967Z,24.19
2022-09-07T09:10:31.305Z,24.07
2022-09-07T09:13:18.857Z,24.90
2022-09-07T09:15:52.200Z,23.99
2022-09-07T09:19:05.860Z,24.18
2022-09-07T09:21:35.214Z,24.88
2022-09-07T09:24:13.451Z,24.55
2022-09-07T09:26:42.944Z,24.40
2022-09-07T09:29:14.113Z,24.77
2022-09-07T09:31:40.654Z,24.87
2022-09-07T09:34:11.183Z,25.04
2022-09-07T09:36:48.320Z,26.16
2022-09-07T09:39:28.933Z,25.97
2022-09-07T09:41:58.330Z,26.23
2022-09-07T09:44:31.226Z,26.84
2022-09-07T09:49:45.078Z,26.76
2022-09-07T09:52:29.563Z,26.69
2022-09-07T09:55:03.397Z,26.26
2022-09-07T10:03:59.731Z,25.77
2022-09-07T10:06:28.857Z,26.19
2022-09-07T10:09:02.128Z,26.12
2022-09-07T10:14:47.009Z,25.30
2022-09-07T10:17:42.338Z,24.87
2022-09-07T10:20:18.765Z,24.56
2022-09-07T10:22:51.670Z,24.46
2022-09-07T10:25:36.833Z,24.21
2022-09-07T10:28:09.972Z,23.37
2022-09-07T10:31:04.284Z,23.20
2022-09-07T10:37:01.724Z,23.23
2022-09-07T10:39:35.733Z,23.16
2022-09-07T10:42:10.340Z,23.05
2022-09-07T10:44:58.369Z,22.66
2022-09-07T10:48:01.684Z,22.50
2022-09-07T10:50:36.626Z,22.45
2022-09-07T10:53:41.470Z,22.22
2022-09-07T10:56:18.184Z,22.51
2022-09-07T10:59:18.807Z,22.29
2022-09-07T11:02:13.911Z,22.16
2022-09-07T11:05:03.853Z,22.44
2022-09-07T11:07:42.621Z,22.13
2022-09-07T11:10:30.844Z,22.16
2022-09-07T11:13:00.245Z,22.73
2022-09-07T11:15:52.692Z,22.89
2022-09-07T11:18:28.143Z,23.16
2022-09-07T11:20:58.883Z,23.24
2022-09-07T11:23:43.572Z,23.41
2022-09-07T11:26:30.386Z,23.89
2022-09-07T11:32:01.838Z,23.69
2022-09-07T11:34:33.766Z,23.92
2022-09-07T11:37:10.821Z,23.86
2022-09-07T11:39:58.752Z,23.90
2022-09-07T11:42:44.978Z,24.12
2022-09-07T11:45:19.132Z,23.74
2022-09-07T11:48:05.788Z,22.75
2022-09-07T11:50:36.673Z,22.85
2022-09-07T11:53:06.629Z,23.39
2022-09-07T11:55:38.441Z,23.48
2022-09-07T11:58:16.978Z,23.71
2022-09-07T12:00:49.778Z,23.96
2022-09-07T12:03:35.234Z,24.65
2022-09-07T12:06:43.229Z,24.57
2022-09-07T12:09:36.035Z,24.85
2022-09-07T12:12:08.435Z,24.79
2022-09-07T12:14:48.169Z,25.12
2022-09-07T12:17:44.019Z,25.17
2022-09-07T12:20:17.853Z,24.78
2022-09-07T12:23:05.799Z,24.33
2022-09-07T12:25:34.174Z,24.17
2022-09-07T12:28:01.152Z,24.57
2022-09-07T12:30:29.061Z,24.32
2022-09-07T12:32:57.045Z,23.59
2022-09-07T12:35:30.019Z,23.72
2022-09-07T12:37:58.233Z,24.07
2022-09-07T12:40:29.754Z,23.82
2022-09-07T12:43:14.411Z,23.86
2022-09-07T12:45:40.853Z,23.83
2022-09-07T12:48:13.289Z,23.69
2022-09-07T12:51:03.186Z,23.68
2022-09-07T12:54:19.197Z,23.71
2022-09-07T13:00:18.412Z,23.23
2022-09-07T13:03:00.266Z,23.44
2022-09-07T13:06:03.766Z,23.47
2022-09-07T13:08:52.098Z,23.46
2022-09-07T13:11:21.565Z,23.23
2022-09-07T13:14:17.486Z,22.87
2022-09-07T13:19:50.755Z,22.89
2022-09-07T13:22:29.110Z,22.72
2022-09-07T13:24:59.480Z,22.57
2022-09-07T13:27:51.217Z,22.76
2022-09-07T13:30:23.973Z,23.10
2022-09-07T13:35:37.494Z,22.90
2022-09-07T13:38:04.848Z,22.93
2022-09-07T13:40:39.229Z,22.94
2022-09-07T13:43:12.560Z,22.99
2022-09-07T13:45:54.762Z,23.12
2022-09-07T13:48:42.858Z,23.07
2022-09-07T13:51:29.101Z,22.98
2022-09-07T13:54:08.478Z,22.76
2022-09-07T13:57:03.060Z,23.16
2022-09-07T13:59:33.468Z,23.39
2022-09-07T14:02:00.671Z,23.23
2022-09-07T14:04:34.822Z,22.93
2022-09-07T14:07:15.413Z,22.62
2022-09-07T14:09:42.327Z,22.73
2022-09-07T14:12:20.389Z,22.46
2022-09-07T14:15:09.266Z,22.86
2022-09-07T14:17:36.234Z,23.02
2022-09-07T14:20:03.809Z,22.78
2022-09-07T14:22:35.190Z,22.56
2022-09-07T14:25:04.484Z,22.23
2022-09-07T14:27:42.920Z,22.40
2022-09-07T14:30:28.030Z,22.68
2022-09-07T14:33:13.353Z,22.69
2022-09-07T14:35:41.247Z,22.97
2022-09-07T14:39:03.958Z,23.25
2022-09-07T14:41:11.973Z,23.20
2022-09-07T14:43:50.718Z,23.34
2022-09-07T14:46:22.329Z,23.24
2022-09-07T14:48:52.130Z,23.41
2022-09-07T14:51:36.136Z,23.42
2022-09-07T14:54:06.102Z,23.15
2022-09-07T14:56:41.224Z,23.23
2022-09-07T14:59:33.036Z,23.06
2022-09-07T15:02:17.904Z,22.58
2022-09-07T15:04:49.860Z,22.68
2022-09-07T15:07:29.441Z,22.97
2022-09-07T15:09:56.030Z,22.86
2022-09-07T15:12:38.225Z,23.02
2022-09-07T15:15:24.430Z,22.60
2022-09-07T15:17:53.176Z,23.02
2022-09-07T15:20:34.953Z,23.13
2022-09-07T15:23:04.879Z,23.15
2022-09-07T15:25:32.668Z,23.30
2022-09-07T15:27:59.214Z,23.12
2022-09-07T15:30:27.242Z,22.92
2022-09-07T15:32:57.364Z,22.89
2022-09-07T15:35:24.531Z,22.88
2022-09-07T15:38:59.313Z,22.68
2022-09-07T15:41:10.535Z,22.80
2022-09-07T15:43:30.601Z,22.77
2022-09-07T15:45:57.289Z,22.66
2022-09-07T15:48:25.224Z,22.73
2022-09-07T15:51:00.231Z,23.10
2022-09-07T15:56:14.071Z,23.03
2022-09-07T15:58:43.187Z,23.09
2022-09-07T16:03:59.001Z,23.13
2022-09-07T16:06:26.672Z,22.91
2022-09-07T16:08:53.743Z,23.01
2022-09-07T16:11:25.762Z,22.96
2022-09-07T16:14:02.822Z,22.98
2022-09-07T16:19:22.215Z,22.98
2022-09-07T16:21:48.677Z,22.96
2022-09-07T16:24:16.213Z,22.81
2022-09-07T16:26:42.730Z,22.87
2022-09-07T16:29:09.213Z,22.90
2022-09-07T16:31:36.052Z,22.74
2022-09-07T16:34:03.401Z,22.85
2022-09-07T16:36:30.668Z,22.63
2022-09-07T16:39:00.258Z,22.62
2022-09-07T16:41:31.716Z,22.85
2022-09-07T16:43:58.623Z,22.87
2022-09-07T16:46:28.311Z,22.88
2022-09-07T16:48:55.175Z,22.91
2022-09-07T16:51:22.890Z,22.82
2022-09-07T16:53:51.677Z,22.87
2022-09-07T16:56:20.319Z,22.84
2022-09-07T16:58:50.046Z,22.93
2022-09-07T17:01:19.037Z,22.74
2022-09-07T17:03:45.912Z,22.80
2022-09-07T17:06:14.318Z,22.79
2022-09-07T17:08:42.205Z,22.82
2022-09-07T17:11:12.799Z,22.85
2022-09-07T17:13:41.042Z,22.65
2022-09-07T17:16:10.537Z,22.74
2022-09-07T17:21:24.438Z,22.55
2022-09-07T17:23:55.586Z,22.40
2022-09-07T17:26:23.646Z,22.09
2022-09-07T17:28:54.695Z,22.00
2022-09-07T17:34:14.498Z,21.37
2022-09-07T17:36:41.024Z,21.40
2022-09-07T17:39:16.779Z,21.40
2022-09-07T17:41:45.113Z,21.35
2022-09-07T17:44:11.624Z,21.47
2022-09-07T17:46:38.043Z,21.37
2022-09-07T17:49:06.968Z,20.78
2022-09-07T17:51:33.416Z,20.69
2022-09-07T17:54:09.555Z,20.76
2022-09-07T17:56:37.395Z,20.76
2022-09-07T18:01:50.744Z,20.77
2022-09-07T18:04:17.442Z,20.54
2022-09-07T18:06:43.918Z,20.64
2022-09-07T18:09:11.284Z,20.46
2022-09-07T18:11:46.873Z,20.56
2022-09-07T18:14:14.564Z,20.57
2022-09-07T18:16:42.687Z,20.36
2022-09-07T18:19:11.791Z,20.31
2022-09-07T18:21:38.444Z,20.36
2022-09-07T18:24:16.607Z,20.39
2022-09-07T18:26:43.764Z,20.23
2022-09-07T18:29:27.285Z,20.27
2022-09-07T18:31:55.275Z,20.26
2022-09-07T18:34:22.335Z,20.36
2022-09-07T18:36:48.809Z,20.34
2022-09-07T18:39:15.282Z,20.21
2022-09-07T18:41:42.194Z,20.31
2022-09-07T18:46:55.823Z,20.37
2022-09-07T18:49:22.287Z,20.32
2022-09-07T18:54:35.211Z,20.13
2022-09-07T18:57:01.739Z,20.25
2022-09-07T18:59:29.564Z,20.20
2022-09-07T19:02:00.151Z,20.19
2022-09-07T19:05:49.526Z,20.31
2022-09-07T19:07:17.448Z,20.20
2022-09-07T19:09:43.938Z,20.12
2022-09-07T19:12:10.448Z,19.97
2022-09-07T19:14:36.912Z,20.02
2022-09-07T19:17:03.530Z,19.99
2022-09-07T19:19:30.204Z,19.81
2022-09-07T19:21:57.796Z,20.07
2022-09-07T19:24:25.649Z,19.96
2022-09-07T19:26:53.911Z,19.85
2022-09-07T19:29:23.582Z,20.00
2022-09-07T19:32:06.693Z,20.00
2022-09-07T19:34:34.891Z,20.23
2022-09-07T19:37:01.837Z,20.14
2022-09-07T19:39:28.781Z,20.25
2022-09-07T19:41:55.511Z,20.11
2022-09-07T19:44:22.043Z,20.07
2022-09-07T19:46:49.093Z,19.86
2022-09-07T19:49:16.115Z,19.94
2022-09-07T19:51:42.896Z,19.93
2022-09-07T19:54:11.058Z,20.05
2022-09-07T19:56:42.728Z,19.94
2022-09-07T19:59:09.465Z,19.98
2022-09-07T20:01:37.634Z,20.08
2022-09-07T20:04:07.534Z,19.92
2022-09-07T20:06:34.905Z,19.90
2022-09-07T20:09:01.779Z,19.94
2022-09-07T20:11:28.929Z,20.01
2022-09-07T20:13:57.019Z,20.04
2022-09-07T20:16:24.556Z,20.03
2022-09-07T20:18:51.448Z,20.03
2022-09-07T20:21:21.226Z,19.73
2022-09-07T20:23:48.286Z,19.68
2022-09-07T20:26:17.736Z,19.72
2022-09-07T20:28:44.658Z,19.69
2022-09-07T20:31:14.249Z,19.62
2022-09-07T20:33:45.751Z,19.75
2022-09-07T20:36:14.203Z,19.65
2022-09-07T20:38:43.114Z,19.66
2022-09-07T20:41:16.753Z,19.57
2022-09-07T20:43:43.309Z,19.57
2022-09-07T20:46:09.752Z,19.53
2022-09-07T20:48:37.315Z,19.48
2022-09-07T20:51:06.461Z,19.52
2022-09-07T20:53:32.936Z,19.33
2022-09-07T20:56:04.468Z,19.48
2022-09-07T20:58:31.271Z,19.39
2022-09-07T21:00:58.015Z,19.36
2022-09-07T21:03:25.074Z,19.36
2022-09-07T21:05:51.863Z,19.06
2022-09-07T21:08:18.451Z,18.99
2022-09-07T21:10:46.586Z,18.95
2022-09-07T21:13:14.498Z,18.78
2022-09-07T21:15:42.597Z,18.96
2022-09-07T21:18:15.157Z,18.68
2022-09-07T21:20:53.244Z,18.85
2022-09-07T21:23:31.304Z,18.71
2022-09-07T21:25:58.323Z,18.74
2022-09-07T21:28:25.873Z,18.79
2022-09-07T21:31:01.241Z,18.67
2022-09-07T21:33:29.039Z,18.61
2022-09-07T21:35:55.660Z,18.58
2022-09-07T21:38:22.651Z,18.48
2022-09-07T21:40:49.315Z,18.59
2022-09-07T21:43:16.770Z,18.47
2022-09-07T21:45:43.215Z,18.35
2022-09-07T21:48:09.798Z,18.50
2022-09-07T21:50:36.365Z,18.47
2022-09-07T21:53:02.942Z,18.32
2022-09-07T21:55:29.343Z,18.32
2022-09-07T21:57:55.824Z,18.30
2022-09-07T22:00:22.836Z,18.41
2022-09-07T22:02:51.022Z,18.23
2022-09-07T22:05:17.696Z,18.21
2022-09-07T22:07:44.329Z,18.29
2022-09-07T22:10:10.923Z,18.22
2022-09-07T22:12:37.338Z,18.31
2022-09-07T22:15:03.991Z,18.17
2022-09-07T22:17:31.449Z,18.16
2022-09-07T22:19:57.959Z,18.14
2022-09-07T22:22:24.412Z,18.00
2022-09-07T22:24:50.790Z,17.91
2022-09-07T22:27:17.194Z,18.05
2022-09-07T22:29:43.626Z,18.14
2022-09-07T22:32:10.079Z,18.15
2022-09-07T22:34:36.617Z,18.23
2022-09-07T22:37:03.050Z,18.13
2022-09-07T22:39:29.668Z,17.98
2022-09-07T22:41:56.181Z,17.85
2022-09-07T22:44:22.662Z,17.79
2022-09-07T22:46:49.245Z,18.00
2022-09-07T22:49:16.862Z,17.78
2022-09-07T22:51:44.411Z,17.68
2022-09-07T22:54:11.025Z,17.80
2022-09-07T22:56:38.987Z,17.62
2022-09-07T22:59:08.027Z,17.67
2022-09-07T23:01:35.906Z,17.56
2022-09-07T23:04:03.518Z,17.67
2022-09-07T23:06:33.396Z,17.61
2022-09-07T23:09:02.812Z,17.60
2022-09-07T23:11:29.769Z,17.46
2022-09-07T23:13:59.015Z,17.70
2022-09-07T23:16:27.334Z,17.76
2022-09-07T23:18:55.412Z,17.75
2022-09-07T23:21:21.926Z,17.81
2022-09-07T23:23:52.788Z,17.74
2022-09-07T23:26:20.738Z,17.79
2022-09-07T23:29:01.450Z,17.65
2022-09-07T23:31:29.650Z,17.58
2022-09-07T23:33:57.642Z,17.41
2022-09-07T23:36:24.770Z,17.42
2022-09-07T23:38:54.642Z,17.42
2022-09-07T23:41:21.784Z,17.37
2022-09-07T23:43:48.426Z,17.38
2022-09-07T23:46:15.711Z,17.22
2022-09-07T23:48:46.309Z,17.18
2022-09-07T23:51:13.694Z,17.35
2022-09-07T23:53:41.282Z,16.99
2022-09-07T23:56:08.078Z,17.03
2022-09-07T23:58:34.754Z,17.11
